sensor_id;sensor_type;location;lat;lon;timestamp;P1;durP1;ratioP1;P2;durP2;ratioP2
74849;SDS011;63397;47.480;19.238;2022-11-20T00:02:39;18.05;;;5.28;;
74849;SDS011;63397;47.480;19.238;2022-11-20T00:05:41;15.67;;;5.33;;
74849;SDS011;63397;47.480;19.238;2022-11-20T00:08:43;15.47;;;5.07;;
74849;SDS011;63397;47.480;19.238;2022-11-20T00:11:46;15.40;;;4.60;;
74849;SDS011;63397;47.480;19.238;2022-11-20T00:14:48;16.38;;;5.20;;
74849;SDS011;63397;47.480;19.238;2022-11-20T00:17:50;20.58;;;6.00;;
74849;SDS011;63397;47.480;19.238;2022-11-20T00:20:53;16.90;;;5.67;;
74849;SDS011;63397;47.480;19.238;2022-11-20T00:23:56;17.60;;;6.13;;
74849;SDS011;63397;47.480;19.238;2022-11-20T00:26:58;18.83;;;6.28;;
74849;SDS011;63397;47.480;19.238;2022-11-20T00:30:00;18.33;;;6.05;;
74849;SDS011;63397;47.480;19.238;2022-11-20T00:33:03;17.27;;;6.32;;
74849;SDS011;63397;47.480;19.238;2022-11-20T00:36:06;20.73;;;6.73;;
74849;SDS011;63397;47.480;19.238;2022-11-20T00:39:09;23.27;;;6.87;;
74849;SDS011;63397;47.480;19.238;2022-11-20T00:42:11;23.83;;;7.07;;
74849;SDS011;63397;47.480;19.238;2022-11-20T00:45:13;19.80;;;6.60;;
74849;SDS011;63397;47.480;19.238;2022-11-20T00:48:16;19.23;;;6.57;;
74849;SDS011;63397;47.480;19.238;2022-11-20T00:51:19;22.00;;;7.53;;
74849;SDS011;63397;47.480;19.238;2022-11-20T00:54:22;20.47;;;6.87;;
74849;SDS011;63397;47.480;19.238;2022-11-20T00:57:24;20.70;;;6.63;;
74849;SDS011;63397;47.480;19.238;2022-11-20T01:00:26;22.58;;;7.00;;
74849;SDS011;63397;47.480;19.238;2022-11-20T01:03:30;19.70;;;6.18;;
74849;SDS011;63397;47.480;19.238;2022-11-20T01:06:33;19.00;;;6.63;;
74849;SDS011;63397;47.480;19.238;2022-11-20T01:09:36;18.93;;;6.80;;
74849;SDS011;63397;47.480;19.238;2022-11-20T01:12:38;20.33;;;6.30;;
74849;SDS011;63397;47.480;19.238;2022-11-20T01:15:40;21.70;;;7.38;;
74849;SDS011;63397;47.480;19.238;2022-11-20T01:18:44;21.42;;;6.25;;
74849;SDS011;63397;47.480;19.238;2022-11-20T01:21:50;18.47;;;6.60;;
74849;SDS011;63397;47.480;19.238;2022-11-20T01:24:53;21.47;;;6.27;;
74849;SDS011;63397;47.480;19.238;2022-11-20T01:27:55;23.88;;;7.93;;
74849;SDS011;63397;47.480;19.238;2022-11-20T01:30:57;24.42;;;8.18;;
74849;SDS011;63397;47.480;19.238;2022-11-20T01:34:01;25.13;;;7.35;;
74849;SDS011;63397;47.480;19.238;2022-11-20T01:37:03;24.57;;;7.50;;
74849;SDS011;63397;47.480;19.238;2022-11-20T01:40:05;26.83;;;8.47;;
74849;SDS011;63397;47.480;19.238;2022-11-20T01:43:16;33.47;;;10.10;;
74849;SDS011;63397;47.480;19.238;2022-11-20T01:46:24;32.53;;;8.98;;
74849;SDS011;63397;47.480;19.238;2022-11-20T01:50:14;34.33;;;9.85;;
74849;SDS011;63397;47.480;19.238;2022-11-20T01:52:51;29.97;;;9.97;;
74849;SDS011;63397;47.480;19.238;2022-11-20T01:55:56;32.57;;;9.53;;
74849;SDS011;63397;47.480;19.238;2022-11-20T01:58:59;36.97;;;10.88;;
74849;SDS011;63397;47.480;19.238;2022-11-20T02:02:03;40.83;;;10.95;;
74849;SDS011;63397;47.480;19.238;2022-11-20T02:05:19;35.75;;;11.43;;
74849;SDS011;63397;47.480;19.238;2022-11-20T02:08:24;39.00;;;12.07;;
74849;SDS011;63397;47.480;19.238;2022-11-20T02:11:27;35.10;;;10.07;;
74849;SDS011;63397;47.480;19.238;2022-11-20T02:14:31;37.13;;;11.23;;
74849;SDS011;63397;47.480;19.238;2022-11-20T02:17:34;37.97;;;11.05;;
74849;SDS011;63397;47.480;19.238;2022-11-20T02:20:36;45.20;;;11.05;;
74849;SDS011;63397;47.480;19.238;2022-11-20T02:23:40;33.87;;;10.33;;
74849;SDS011;63397;47.480;19.238;2022-11-20T02:32:52;37.58;;;10.52;;
74849;SDS011;63397;47.480;19.238;2022-11-20T02:35:54;42.80;;;12.82;;
74849;SDS011;63397;47.480;19.238;2022-11-20T02:38:57;39.50;;;11.37;;
74849;SDS011;63397;47.480;19.238;2022-11-20T02:42:00;35.37;;;10.90;;
74849;SDS011;63397;47.480;19.238;2022-11-20T02:45:03;43.05;;;11.55;;
74849;SDS011;63397;47.480;19.238;2022-11-20T02:48:06;34.50;;;9.60;;
74849;SDS011;63397;47.480;19.238;2022-11-20T02:51:09;32.30;;;10.40;;
74849;SDS011;63397;47.480;19.238;2022-11-20T02:54:11;34.30;;;9.60;;
74849;SDS011;63397;47.480;19.238;2022-11-20T02:57:14;35.97;;;10.70;;
74849;SDS011;63397;47.480;19.238;2022-11-20T03:00:16;33.97;;;9.80;;
74849;SDS011;63397;47.480;19.238;2022-11-20T03:03:18;33.67;;;10.32;;
74849;SDS011;63397;47.480;19.238;2022-11-20T03:06:21;36.45;;;11.15;;
74849;SDS011;63397;47.480;19.238;2022-11-20T03:09:23;35.97;;;10.73;;
74849;SDS011;63397;47.480;19.238;2022-11-20T03:12:25;32.90;;;10.90;;
74849;SDS011;63397;47.480;19.238;2022-11-20T03:15:28;31.52;;;10.10;;
74849;SDS011;63397;47.480;19.238;2022-11-20T03:18:31;34.33;;;10.63;;
74849;SDS011;63397;47.480;19.238;2022-11-20T03:21:34;32.08;;;9.32;;
74849;SDS011;63397;47.480;19.238;2022-11-20T03:24:36;31.67;;;9.10;;
74849;SDS011;63397;47.480;19.238;2022-11-20T03:27:39;32.93;;;9.33;;
74849;SDS011;63397;47.480;19.238;2022-11-20T03:30:41;33.55;;;10.70;;
74849;SDS011;63397;47.480;19.238;2022-11-20T03:33:43;30.60;;;9.10;;
74849;SDS011;63397;47.480;19.238;2022-11-20T03:36:45;28.85;;;9.13;;
74849;SDS011;63397;47.480;19.238;2022-11-20T03:39:48;30.23;;;9.13;;
74849;SDS011;63397;47.480;19.238;2022-11-20T03:42:50;32.70;;;10.17;;
74849;SDS011;63397;47.480;19.238;2022-11-20T03:45:52;28.25;;;9.30;;
74849;SDS011;63397;47.480;19.238;2022-11-20T03:48:54;30.23;;;9.00;;
74849;SDS011;63397;47.480;19.238;2022-11-20T03:51:57;34.40;;;10.57;;
74849;SDS011;63397;47.480;19.238;2022-11-20T03:54:59;35.37;;;10.33;;
74849;SDS011;63397;47.480;19.238;2022-11-20T03:58:01;30.97;;;9.20;;
74849;SDS011;63397;47.480;19.238;2022-11-20T04:01:04;32.00;;;10.23;;
74849;SDS011;63397;47.480;19.238;2022-11-20T04:04:07;30.63;;;9.70;;
74849;SDS011;63397;47.480;19.238;2022-11-20T04:07:09;27.10;;;9.82;;
74849;SDS011;63397;47.480;19.238;2022-11-20T04:10:11;24.43;;;8.50;;
74849;SDS011;63397;47.480;19.238;2022-11-20T04:13:14;30.00;;;8.20;;
74849;SDS011;63397;47.480;19.238;2022-11-20T04:16:16;31.02;;;9.45;;
74849;SDS011;63397;47.480;19.238;2022-11-20T04:19:18;30.48;;;9.75;;
74849;SDS011;63397;47.480;19.238;2022-11-20T04:22:21;32.30;;;11.35;;
74849;SDS011;63397;47.480;19.238;2022-11-20T04:25:23;34.17;;;10.60;;
74849;SDS011;63397;47.480;19.238;2022-11-20T04:28:26;30.57;;;9.27;;
74849;SDS011;63397;47.480;19.238;2022-11-20T04:31:29;31.58;;;10.23;;
74849;SDS011;63397;47.480;19.238;2022-11-20T04:34:31;37.47;;;11.32;;
74849;SDS011;63397;47.480;19.238;2022-11-20T04:37:33;32.72;;;10.57;;
74849;SDS011;63397;47.480;19.238;2022-11-20T04:40:36;35.40;;;11.40;;
74849;SDS011;63397;47.480;19.238;2022-11-20T04:43:38;34.27;;;11.33;;
74849;SDS011;63397;47.480;19.238;2022-11-20T04:46:41;35.45;;;10.48;;
74849;SDS011;63397;47.480;19.238;2022-11-20T04:49:43;40.22;;;12.05;;
74849;SDS011;63397;47.480;19.238;2022-11-20T04:52:45;36.20;;;11.23;;
74849;SDS011;63397;47.480;19.238;2022-11-20T04:55:48;40.73;;;13.07;;
74849;SDS011;63397;47.480;19.238;2022-11-20T04:58:50;32.30;;;11.27;;
74849;SDS011;63397;47.480;19.238;2022-11-20T05:01:53;35.85;;;11.88;;
74849;SDS011;63397;47.480;19.238;2022-11-20T05:04:55;37.38;;;11.95;;
74849;SDS011;63397;47.480;19.238;2022-11-20T05:07:58;34.25;;;10.50;;
74849;SDS011;63397;47.480;19.238;2022-11-20T05:11:04;35.53;;;11.53;;
74849;SDS011;63397;47.480;19.238;2022-11-20T05:14:06;36.17;;;11.97;;
74849;SDS011;63397;47.480;19.238;2022-11-20T05:17:10;36.47;;;11.35;;
74849;SDS011;63397;47.480;19.238;2022-11-20T05:20:12;30.45;;;10.35;;
74849;SDS011;63397;47.480;19.238;2022-11-20T05:23:14;31.23;;;10.70;;
74849;SDS011;63397;47.480;19.238;2022-11-20T05:26:18;32.80;;;11.17;;
74849;SDS011;63397;47.480;19.238;2022-11-20T05:29:21;35.87;;;10.63;;
74849;SDS011;63397;47.480;19.238;2022-11-20T05:32:24;36.70;;;11.52;;
74849;SDS011;63397;47.480;19.238;2022-11-20T05:35:27;35.92;;;12.07;;
74849;SDS011;63397;47.480;19.238;2022-11-20T05:38:29;35.28;;;11.25;;
74849;SDS011;63397;47.480;19.238;2022-11-20T05:41:32;36.13;;;11.47;;
74849;SDS011;63397;47.480;19.238;2022-11-20T05:44:35;36.20;;;10.13;;
74849;SDS011;63397;47.480;19.238;2022-11-20T05:47:37;37.88;;;11.38;;
74849;SDS011;63397;47.480;19.238;2022-11-20T05:50:39;40.97;;;12.50;;
74849;SDS011;63397;47.480;19.238;2022-11-20T05:53:42;35.28;;;10.98;;
74849;SDS011;63397;47.480;19.238;2022-11-20T05:56:49;39.67;;;12.43;;
74849;SDS011;63397;47.480;19.238;2022-11-20T05:59:51;38.33;;;12.83;;
74849;SDS011;63397;47.480;19.238;2022-11-20T06:02:54;33.92;;;10.80;;
74849;SDS011;63397;47.480;19.238;2022-11-20T06:05:58;34.92;;;11.45;;
74849;SDS011;63397;47.480;19.238;2022-11-20T06:09:00;37.75;;;11.90;;
74849;SDS011;63397;47.480;19.238;2022-11-20T06:12:02;33.77;;;10.97;;
74849;SDS011;63397;47.480;19.238;2022-11-20T06:15:05;27.77;;;9.40;;
74849;SDS011;63397;47.480;19.238;2022-11-20T06:18:07;34.30;;;11.10;;
74849;SDS011;63397;47.480;19.238;2022-11-20T06:21:16;39.95;;;12.52;;
74849;SDS011;63397;47.480;19.238;2022-11-20T06:24:19;29.90;;;10.00;;
74849;SDS011;63397;47.480;19.238;2022-11-20T06:27:21;37.33;;;11.60;;
74849;SDS011;63397;47.480;19.238;2022-11-20T06:30:24;30.70;;;10.60;;
74849;SDS011;63397;47.480;19.238;2022-11-20T06:33:26;35.78;;;11.32;;
74849;SDS011;63397;47.480;19.238;2022-11-20T06:36:28;40.33;;;12.55;;
74849;SDS011;63397;47.480;19.238;2022-11-20T06:39:30;38.65;;;12.65;;
74849;SDS011;63397;47.480;19.238;2022-11-20T06:42:33;39.53;;;12.63;;
74849;SDS011;63397;47.480;19.238;2022-11-20T06:45:35;39.80;;;11.40;;
74849;SDS011;63397;47.480;19.238;2022-11-20T06:48:37;40.20;;;11.68;;
74849;SDS011;63397;47.480;19.238;2022-11-20T06:51:40;34.92;;;11.20;;
74849;SDS011;63397;47.480;19.238;2022-11-20T06:54:42;32.08;;;11.48;;
74849;SDS011;63397;47.480;19.238;2022-11-20T06:57:44;41.20;;;11.53;;
74849;SDS011;63397;47.480;19.238;2022-11-20T07:00:47;33.73;;;10.50;;
74849;SDS011;63397;47.480;19.238;2022-11-20T07:03:49;38.67;;;12.13;;
74849;SDS011;63397;47.480;19.238;2022-11-20T07:06:55;40.50;;;12.07;;
74849;SDS011;63397;47.480;19.238;2022-11-20T07:09:57;31.08;;;10.43;;
74849;SDS011;63397;47.480;19.238;2022-11-20T07:13:00;37.67;;;12.00;;
74849;SDS011;63397;47.480;19.238;2022-11-20T07:16:03;35.80;;;11.37;;
74849;SDS011;63397;47.480;19.238;2022-11-20T07:19:05;33.88;;;11.27;;
74849;SDS011;63397;47.480;19.238;2022-11-20T07:22:08;34.97;;;11.55;;
74849;SDS011;63397;47.480;19.238;2022-11-20T07:25:10;32.15;;;10.70;;
74849;SDS011;63397;47.480;19.238;2022-11-20T07:28:12;30.70;;;11.03;;
74849;SDS011;63397;47.480;19.238;2022-11-20T07:31:16;37.17;;;12.03;;
74849;SDS011;63397;47.480;19.238;2022-11-20T07:34:20;36.60;;;12.27;;
74849;SDS011;63397;47.480;19.238;2022-11-20T07:37:23;30.52;;;10.95;;
74849;SDS011;63397;47.480;19.238;2022-11-20T07:40:25;37.53;;;11.35;;
74849;SDS011;63397;47.480;19.238;2022-11-20T07:43:27;36.63;;;10.60;;
74849;SDS011;63397;47.480;19.238;2022-11-20T07:46:30;34.43;;;11.67;;
74849;SDS011;63397;47.480;19.238;2022-11-20T07:49:32;36.60;;;11.45;;
74849;SDS011;63397;47.480;19.238;2022-11-20T07:52:35;34.65;;;11.95;;
74849;SDS011;63397;47.480;19.238;2022-11-20T07:55:37;34.25;;;11.57;;
74849;SDS011;63397;47.480;19.238;2022-11-20T07:58:39;28.70;;;9.77;;
74849;SDS011;63397;47.480;19.238;2022-11-20T08:01:42;35.43;;;12.03;;
74849;SDS011;63397;47.480;19.238;2022-11-20T08:04:44;34.67;;;12.13;;
74849;SDS011;63397;47.480;19.238;2022-11-20T08:07:47;33.75;;;11.10;;
74849;SDS011;63397;47.480;19.238;2022-11-20T08:10:49;35.15;;;12.00;;
74849;SDS011;63397;47.480;19.238;2022-11-20T08:13:51;40.63;;;13.30;;
74849;SDS011;63397;47.480;19.238;2022-11-20T08:17:12;36.37;;;11.47;;
74849;SDS011;63397;47.480;19.238;2022-11-20T08:20:15;35.45;;;11.88;;
74849;SDS011;63397;47.480;19.238;2022-11-20T08:23:17;38.25;;;12.80;;
74849;SDS011;63397;47.480;19.238;2022-11-20T08:26:20;37.35;;;12.68;;
74849;SDS011;63397;47.480;19.238;2022-11-20T08:29:23;34.97;;;12.13;;
74849;SDS011;63397;47.480;19.238;2022-11-20T08:32:25;36.57;;;12.57;;
74849;SDS011;63397;47.480;19.238;2022-11-20T08:35:28;39.47;;;13.35;;
74849;SDS011;63397;47.480;19.238;2022-11-20T08:38:30;35.10;;;12.15;;
74849;SDS011;63397;47.480;19.238;2022-11-20T08:41:33;32.08;;;11.70;;
74849;SDS011;63397;47.480;19.238;2022-11-20T08:44:35;30.47;;;11.43;;
74849;SDS011;63397;47.480;19.238;2022-11-20T08:47:37;28.83;;;10.63;;
74849;SDS011;63397;47.480;19.238;2022-11-20T08:50:39;31.58;;;10.65;;
74849;SDS011;63397;47.480;19.238;2022-11-20T08:53:42;31.63;;;10.38;;
74849;SDS011;63397;47.480;19.238;2022-11-20T08:56:44;35.15;;;10.38;;
74849;SDS011;63397;47.480;19.238;2022-11-20T08:59:46;32.58;;;11.02;;
74849;SDS011;63397;47.480;19.238;2022-11-20T09:03:07;29.40;;;10.47;;
74849;SDS011;63397;47.480;19.238;2022-11-20T09:06:09;33.70;;;11.07;;
74849;SDS011;63397;47.480;19.238;2022-11-20T09:09:11;29.83;;;10.70;;
74849;SDS011;63397;47.480;19.238;2022-11-20T09:12:13;33.92;;;11.38;;
74849;SDS011;63397;47.480;19.238;2022-11-20T09:15:16;35.13;;;10.33;;
74849;SDS011;63397;47.480;19.238;2022-11-20T09:18:18;24.37;;;8.97;;
74849;SDS011;63397;47.480;19.238;2022-11-20T09:21:21;26.60;;;9.65;;
74849;SDS011;63397;47.480;19.238;2022-11-20T09:24:24;27.60;;;10.27;;
74849;SDS011;63397;47.480;19.238;2022-11-20T09:27:27;29.55;;;9.63;;
74849;SDS011;63397;47.480;19.238;2022-11-20T09:30:29;26.90;;;10.02;;
74849;SDS011;63397;47.480;19.238;2022-11-20T09:33:32;25.93;;;10.60;;
74849;SDS011;63397;47.480;19.238;2022-11-20T09:36:35;31.92;;;11.98;;
74849;SDS011;63397;47.480;19.238;2022-11-20T09:39:38;29.75;;;11.38;;
74849;SDS011;63397;47.480;19.238;2022-11-20T09:42:43;30.88;;;11.30;;
74849;SDS011;63397;47.480;19.238;2022-11-20T09:52:05;32.00;;;11.80;;
74849;SDS011;63397;47.480;19.238;2022-11-20T09:55:13;33.10;;;11.38;;
74849;SDS011;63397;47.480;19.238;2022-11-20T10:01:32;35.08;;;12.05;;
74849;SDS011;63397;47.480;19.238;2022-11-20T10:04:35;31.97;;;11.67;;
74849;SDS011;63397;47.480;19.238;2022-11-20T10:11:18;34.08;;;11.70;;
74849;SDS011;63397;47.480;19.238;2022-11-20T10:17:37;31.13;;;10.98;;
74849;SDS011;63397;47.480;19.238;2022-11-20T10:20:48;34.17;;;12.07;;
74849;SDS011;63397;47.480;19.238;2022-11-20T10:27:22;32.42;;;11.20;;
74849;SDS011;63397;47.480;19.238;2022-11-20T10:30:27;29.75;;;11.18;;
74849;SDS011;63397;47.480;19.238;2022-11-20T10:33:31;26.07;;;10.57;;
74849;SDS011;63397;47.480;19.238;2022-11-20T10:36:56;28.13;;;10.27;;
74849;SDS011;63397;47.480;19.238;2022-11-20T10:40:44;29.65;;;10.80;;
74849;SDS011;63397;47.480;19.238;2022-11-20T10:43:32;27.23;;;9.60;;
74849;SDS011;63397;47.480;19.238;2022-11-20T10:46:39;25.45;;;9.38;;
74849;SDS011;63397;47.480;19.238;2022-11-20T10:49:46;28.00;;;9.23;;
74849;SDS011;63397;47.480;19.238;2022-11-20T10:56:05;28.50;;;10.40;;
74849;SDS011;63397;47.480;19.238;2022-11-20T11:02:17;25.65;;;8.80;;
74849;SDS011;63397;47.480;19.238;2022-11-20T11:05:25;23.70;;;9.70;;
74849;SDS011;63397;47.480;19.238;2022-11-20T11:08:36;24.47;;;9.77;;
74849;SDS011;63397;47.480;19.238;2022-11-20T11:11:39;24.80;;;9.10;;
74849;SDS011;63397;47.480;19.238;2022-11-20T11:14:42;24.67;;;9.02;;
74849;SDS011;63397;47.480;19.238;2022-11-20T11:17:48;28.50;;;9.50;;
74849;SDS011;63397;47.480;19.238;2022-11-20T11:20:50;23.10;;;9.48;;
74849;SDS011;63397;47.480;19.238;2022-11-20T11:23:59;26.00;;;10.20;;
74849;SDS011;63397;47.480;19.238;2022-11-20T11:27:22;26.38;;;9.77;;
74849;SDS011;63397;47.480;19.238;2022-11-20T11:30:25;27.23;;;10.38;;
74849;SDS011;63397;47.480;19.238;2022-11-20T11:33:29;25.75;;;9.63;;
74849;SDS011;63397;47.480;19.238;2022-11-20T11:36:31;26.20;;;9.57;;
74849;SDS011;63397;47.480;19.238;2022-11-20T11:39:35;26.53;;;9.40;;
74849;SDS011;63397;47.480;19.238;2022-11-20T11:42:44;28.02;;;10.13;;
74849;SDS011;63397;47.480;19.238;2022-11-20T11:45:52;25.05;;;9.93;;
74849;SDS011;63397;47.480;19.238;2022-11-20T11:52:04;25.05;;;10.05;;
74849;SDS011;63397;47.480;19.238;2022-11-20T11:55:12;26.57;;;10.07;;
74849;SDS011;63397;47.480;19.238;2022-11-20T12:04:30;30.42;;;11.45;;
74849;SDS011;63397;47.480;19.238;2022-11-20T12:07:41;29.88;;;11.05;;
74849;SDS011;63397;47.480;19.238;2022-11-20T12:14:12;31.80;;;11.23;;
74849;SDS011;63397;47.480;19.238;2022-11-20T12:17:16;26.42;;;10.38;;
74849;SDS011;63397;47.480;19.238;2022-11-20T12:20:19;30.85;;;12.13;;
74849;SDS011;63397;47.480;19.238;2022-11-20T12:23:27;31.08;;;12.15;;
74849;SDS011;63397;47.480;19.238;2022-11-20T13:01:40;34.30;;;11.68;;
74849;SDS011;63397;47.480;19.238;2022-11-20T13:07:56;33.70;;;10.80;;
74849;SDS011;63397;47.480;19.238;2022-11-20T13:14:07;32.77;;;11.63;;
74849;SDS011;63397;47.480;19.238;2022-11-20T13:17:14;32.15;;;11.18;;
74849;SDS011;63397;47.480;19.238;2022-11-20T13:20:19;34.22;;;12.10;;
74849;SDS011;63397;47.480;19.238;2022-11-20T13:23:28;37.33;;;12.50;;
74849;SDS011;63397;47.480;19.238;2022-11-20T13:26:30;31.80;;;12.05;;
74849;SDS011;63397;47.480;19.238;2022-11-20T13:29:34;28.53;;;11.17;;
74849;SDS011;63397;47.480;19.238;2022-11-20T13:32:36;33.30;;;12.27;;
74849;SDS011;63397;47.480;19.238;2022-11-20T13:36:00;32.05;;;12.00;;
74849;SDS011;63397;47.480;19.238;2022-11-20T13:39:03;32.70;;;12.48;;
74849;SDS011;63397;47.480;19.238;2022-11-20T13:45:25;35.23;;;12.50;;
74849;SDS011;63397;47.480;19.238;2022-11-20T13:48:38;31.67;;;11.40;;
74849;SDS011;63397;47.480;19.238;2022-11-20T13:51:45;33.92;;;11.65;;
74849;SDS011;63397;47.480;19.238;2022-11-20T13:58:05;30.00;;;11.93;;
74849;SDS011;63397;47.480;19.238;2022-11-20T14:01:10;33.43;;;13.37;;
74849;SDS011;63397;47.480;19.238;2022-11-20T14:04:18;31.73;;;12.23;;
74849;SDS011;63397;47.480;19.238;2022-11-20T14:07:24;35.63;;;13.27;;
74849;SDS011;63397;47.480;19.238;2022-11-20T14:10:28;33.20;;;11.98;;
74849;SDS011;63397;47.480;19.238;2022-11-20T14:13:33;34.38;;;12.30;;
74849;SDS011;63397;47.480;19.238;2022-11-20T14:16:36;33.30;;;12.10;;
74849;SDS011;63397;47.480;19.238;2022-11-20T14:19:39;35.47;;;11.65;;
74849;SDS011;63397;47.480;19.238;2022-11-20T14:22:49;37.00;;;12.57;;
74849;SDS011;63397;47.480;19.238;2022-11-20T14:25:52;36.88;;;12.50;;
74849;SDS011;63397;47.480;19.238;2022-11-20T14:28:55;32.75;;;12.35;;
74849;SDS011;63397;47.480;19.238;2022-11-20T14:31:58;37.80;;;12.93;;
74849;SDS011;63397;47.480;19.238;2022-11-20T14:35:02;36.00;;;12.65;;
74849;SDS011;63397;47.480;19.238;2022-11-20T14:38:09;36.30;;;13.38;;
74849;SDS011;63397;47.480;19.238;2022-11-20T14:41:31;38.80;;;12.98;;
74849;SDS011;63397;47.480;19.238;2022-11-20T14:44:34;38.13;;;12.57;;
74849;SDS011;63397;47.480;19.238;2022-11-20T14:47:39;35.50;;;12.60;;
74849;SDS011;63397;47.480;19.238;2022-11-20T14:50:42;34.90;;;13.23;;
74849;SDS011;63397;47.480;19.238;2022-11-20T14:53:45;34.42;;;12.27;;
74849;SDS011;63397;47.480;19.238;2022-11-20T15:00:31;40.08;;;13.15;;
74849;SDS011;63397;47.480;19.238;2022-11-20T15:03:36;40.70;;;13.60;;
74849;SDS011;63397;47.480;19.238;2022-11-20T15:06:48;40.38;;;12.82;;
74849;SDS011;63397;47.480;19.238;2022-11-20T15:13:11;36.58;;;13.27;;
74849;SDS011;63397;47.480;19.238;2022-11-20T15:16:17;40.38;;;14.00;;
74849;SDS011;63397;47.480;19.238;2022-11-20T15:19:20;37.13;;;13.43;;
74849;SDS011;63397;47.480;19.238;2022-11-20T15:22:23;44.22;;;14.13;;
74849;SDS011;63397;47.480;19.238;2022-11-20T15:25:25;38.33;;;13.57;;
74849;SDS011;63397;47.480;19.238;2022-11-20T15:28:33;37.83;;;13.32;;
74849;SDS011;63397;47.480;19.238;2022-11-20T15:31:36;40.10;;;13.47;;
74849;SDS011;63397;47.480;19.238;2022-11-20T15:34:39;43.03;;;14.10;;
74849;SDS011;63397;47.480;19.238;2022-11-20T15:37:42;44.70;;;14.32;;
74849;SDS011;63397;47.480;19.238;2022-11-20T15:40:45;37.80;;;12.85;;
74849;SDS011;63397;47.480;19.238;2022-11-20T15:43:47;37.97;;;13.27;;
74849;SDS011;63397;47.480;19.238;2022-11-20T15:46:50;35.87;;;12.63;;
74849;SDS011;63397;47.480;19.238;2022-11-20T15:49:53;43.70;;;13.03;;
74849;SDS011;63397;47.480;19.238;2022-11-20T15:52:55;40.45;;;13.43;;
74849;SDS011;63397;47.480;19.238;2022-11-20T15:55:58;45.85;;;14.60;;
74849;SDS011;63397;47.480;19.238;2022-11-20T15:59:00;47.53;;;14.82;;
74849;SDS011;63397;47.480;19.238;2022-11-20T16:02:04;45.87;;;15.93;;
74849;SDS011;63397;47.480;19.238;2022-11-20T16:05:11;44.43;;;15.03;;
74849;SDS011;63397;47.480;19.238;2022-11-20T16:08:14;47.65;;;14.98;;
74849;SDS011;63397;47.480;19.238;2022-11-20T16:11:17;47.47;;;15.35;;
74849;SDS011;63397;47.480;19.238;2022-11-20T16:14:19;46.83;;;15.77;;
74849;SDS011;63397;47.480;19.238;2022-11-20T16:17:41;49.03;;;15.33;;
74849;SDS011;63397;47.480;19.238;2022-11-20T16:20:47;46.23;;;15.53;;
74849;SDS011;63397;47.480;19.238;2022-11-20T16:23:51;45.80;;;15.07;;
74849;SDS011;63397;47.480;19.238;2022-11-20T16:26:53;45.28;;;15.32;;
74849;SDS011;63397;47.480;19.238;2022-11-20T16:29:56;44.47;;;15.40;;
74849;SDS011;63397;47.480;19.238;2022-11-20T16:32:59;45.70;;;14.73;;
74849;SDS011;63397;47.480;19.238;2022-11-20T16:36:09;46.00;;;14.27;;
74849;SDS011;63397;47.480;19.238;2022-11-20T16:39:11;47.88;;;16.00;;
74849;SDS011;63397;47.480;19.238;2022-11-20T16:42:14;43.03;;;14.23;;
74849;SDS011;63397;47.480;19.238;2022-11-20T16:45:17;48.05;;;14.63;;
74849;SDS011;63397;47.480;19.238;2022-11-20T16:48:27;42.70;;;14.47;;
74849;SDS011;63397;47.480;19.238;2022-11-20T16:51:30;46.10;;;15.67;;
74849;SDS011;63397;47.480;19.238;2022-11-20T16:54:33;46.35;;;15.45;;
74849;SDS011;63397;47.480;19.238;2022-11-20T16:57:36;47.28;;;15.57;;
74849;SDS011;63397;47.480;19.238;2022-11-20T17:00:40;46.63;;;15.65;;
74849;SDS011;63397;47.480;19.238;2022-11-20T17:03:58;49.67;;;15.27;;
74849;SDS011;63397;47.480;19.238;2022-11-20T17:07:00;47.10;;;15.53;;
74849;SDS011;63397;47.480;19.238;2022-11-20T17:10:09;50.35;;;16.23;;
74849;SDS011;63397;47.480;19.238;2022-11-20T17:13:11;45.10;;;14.38;;
74849;SDS011;63397;47.480;19.238;2022-11-20T17:16:15;44.15;;;14.93;;
74849;SDS011;63397;47.480;19.238;2022-11-20T17:19:17;52.23;;;15.57;;
74849;SDS011;63397;47.480;19.238;2022-11-20T17:22:21;45.10;;;15.43;;
74849;SDS011;63397;47.480;19.238;2022-11-20T17:25:23;42.40;;;15.82;;
74849;SDS011;63397;47.480;19.238;2022-11-20T17:28:25;44.95;;;15.30;;
74849;SDS011;63397;47.480;19.238;2022-11-20T17:31:28;57.90;;;18.48;;
74849;SDS011;63397;47.480;19.238;2022-11-20T17:34:31;69.90;;;21.13;;
74849;SDS011;63397;47.480;19.238;2022-11-20T17:37:33;65.83;;;23.60;;
74849;SDS011;63397;47.480;19.238;2022-11-20T17:40:36;78.57;;;26.88;;
74849;SDS011;63397;47.480;19.238;2022-11-20T17:43:39;95.97;;;32.97;;
74849;SDS011;63397;47.480;19.238;2022-11-20T17:46:43;112.40;;;38.28;;
74849;SDS011;63397;47.480;19.238;2022-11-20T17:49:45;94.00;;;32.87;;
74849;SDS011;63397;47.480;19.238;2022-11-20T17:52:47;109.53;;;39.60;;
74849;SDS011;63397;47.480;19.238;2022-11-20T17:55:56;113.28;;;38.58;;
74849;SDS011;63397;47.480;19.238;2022-11-20T17:59:17;113.97;;;39.33;;
74849;SDS011;63397;47.480;19.238;2022-11-20T18:02:20;93.82;;;32.75;;
74849;SDS011;63397;47.480;19.238;2022-11-20T18:05:22;96.93;;;32.63;;
74849;SDS011;63397;47.480;19.238;2022-11-20T18:08:26;86.70;;;31.63;;
74849;SDS011;63397;47.480;19.238;2022-11-20T18:11:30;89.80;;;31.92;;
74849;SDS011;63397;47.480;19.238;2022-11-20T18:14:34;83.97;;;30.83;;
74849;SDS011;63397;47.480;19.238;2022-11-20T18:17:37;86.22;;;29.90;;
74849;SDS011;63397;47.480;19.238;2022-11-20T18:20:39;94.20;;;31.97;;
74849;SDS011;63397;47.480;19.238;2022-11-20T18:23:42;96.20;;;35.27;;
74849;SDS011;63397;47.480;19.238;2022-11-20T18:26:44;109.45;;;38.00;;
74849;SDS011;63397;47.480;19.238;2022-11-20T18:29:47;106.00;;;39.80;;
74849;SDS011;63397;47.480;19.238;2022-11-20T18:32:53;113.28;;;41.90;;
74849;SDS011;63397;47.480;19.238;2022-11-20T18:35:56;133.10;;;46.77;;
74849;SDS011;63397;47.480;19.238;2022-11-20T18:38:59;133.90;;;47.53;;
74849;SDS011;63397;47.480;19.238;2022-11-20T18:42:03;148.48;;;49.85;;
74849;SDS011;63397;47.480;19.238;2022-11-20T18:45:24;126.63;;;47.08;;
74849;SDS011;63397;47.480;19.238;2022-11-20T18:48:26;127.53;;;46.90;;
74849;SDS011;63397;47.480;19.238;2022-11-20T18:51:28;127.87;;;45.53;;
74849;SDS011;63397;47.480;19.238;2022-11-20T18:54:33;123.20;;;45.43;;
74849;SDS011;63397;47.480;19.238;2022-11-20T18:57:36;123.70;;;44.67;;
74849;SDS011;63397;47.480;19.238;2022-11-20T19:00:38;118.18;;;44.15;;
74849;SDS011;63397;47.480;19.238;2022-11-20T19:03:41;129.00;;;45.28;;
74849;SDS011;63397;47.480;19.238;2022-11-20T19:06:45;116.60;;;43.07;;
74849;SDS011;63397;47.480;19.238;2022-11-20T19:09:50;132.30;;;46.10;;
74849;SDS011;63397;47.480;19.238;2022-11-20T19:12:54;125.82;;;45.40;;
74849;SDS011;63397;47.480;19.238;2022-11-20T19:16:00;116.50;;;44.10;;
74849;SDS011;63397;47.480;19.238;2022-11-20T19:19:03;132.52;;;44.17;;
74849;SDS011;63397;47.480;19.238;2022-11-20T19:22:06;139.60;;;45.57;;
74849;SDS011;63397;47.480;19.238;2022-11-20T19:25:09;115.63;;;42.63;;